Time,TemperatureF,DewpointF,PressureIn,WindDirection,WindDirectionDegrees,WindSpeedMPH,WindSpeedGustMPH,Humidity,HourlyPrecipIn,Conditions,Clouds,dailyrainin,SoftwareType,DateUTC
2013-03-28 00:00:00,22.5,2.8,28.67,NW,321,2.7,3.5,42,0.00,CLR,OVC,0.00,WeatherDisplay:10.37,2013-03-28 04:00:00,
2013-03-28 00:05:00,23.9,1.9,28.67,WNW,295,2.7,4.6,38,0.00,CLR,OVC,0.00,WeatherDisplay:10.37,2013-03-28 04:05:00,
2013-03-28 00:10:00,24.4,1.3,28.67,NW,305,2.2,3.5,36,0.00,CLR,OVC,0.00,WeatherDisplay:10.37,2013-03-28 04:10:00,
2013-03-28 00:15:00,25.0,0.5,28.67,WNW,295,0.0,5.8,34,0.00,CLR,OVC,0.00,WeatherDisplay:10.37,2013-03-28 04:15:00,
2013-03-28 00:20:00,25.2,0.7,28.67,West,276,0.0,3.5,34,0.00,CLR,OVC,0.00,WeatherDisplay:10.37,2013-03-28 04:20:00,
2013-03-28 00:25:00,25.0,-0.1,28.67,WNW,297,2.2,3.5,33,0.00,CLR,OVC,0.00,WeatherDisplay:10.37,2013-03-28 04:25:00,
2013-03-28 00:30:00,25.0,-0.1,28.67,WNW,291,0.0,5.8,33,0.00,CLR,OVC,0.00,WeatherDisplay:10.37,2013-03-28 04:30:00,
2013-03-28 00:35:00,25.2,0.0,28.67,NW,310,2.2,3.5,33,0.00,CLR,OVC,0.00,WeatherDisplay:10.37,2013-03-28 04:35:00,
2013-03-28 00:40:00,25.2,0.0,28.67,West,278,2.2,3.5,33,0.00,CLR,OVC,0.00,WeatherDisplay:10.37,2013-03-28 04:40:00,
2013-03-28 00:45:00,25.2,-0.6,28.67,NW,312,2.2,4.6,32,0.00,CLR,OVC,0.00,WeatherDisplay:10.37,2013-03-28 04:45:00,
2013-03-28 00:50:00,25.3,-0.5,28.67,WNW,299,2.2,3.5,32,0.00,CLR,OVC,0.00,WeatherDisplay:10.37,2013-03-28 04:50:00,
2013-03-28 00:55:00,25.0,-0.8,28.67,NW,311,0.0,0.0,32,0.00,CLR,OVC,0.00,WeatherDisplay:10.37,2013-03-28 04:55:00,
2013-03-28 01:00:00,25.0,-0.8,28.67,NW,308,2.7,5.8,32,0.00,CLR,OVC,0.00,WeatherDisplay:10.37,2013-03-28 05:00:00,
2013-03-28 01:05:00,25.2,-0.6,28.67,NW,308,2.2,3.5,32,0.00,CLR,OVC,0.00,WeatherDisplay:10.37,2013-03-28 05:05:00,
2013-03-28 01:10:00,25.2,-0.6,28.67,WNW,301,2.2,3.5,32,0.00,CLR,OVC,0.00,WeatherDisplay:10.37,2013-03-28 05:10:00,
2013-03-28 01:15:00,25.0,-0.8,28.67,WNW,301,0.0,3.5,32,0.00,CLR,OVC,0.00,WeatherDisplay:10.37,2013-03-28 05:15:00,
2013-03-28 01:20:00,25.0,-0.8,28.67,NW,318,0.0,3.5,32,0.00,CLR,OVC,0.00,WeatherDisplay:10.37,2013-03-28 05:20:00,
2013-03-28 01:25:00,25.0,-0.8,28.67,NW,321,2.7,3.5,32,0.00,CLR,OVC,0.00,WeatherDisplay:10.37,2013-03-28 05:25:00,
2013-03-28 01:30:00,24.8,-0.9,28.67,NW,308,0.0,0.0,32,0.00,CLR,OVC,0.00,WeatherDisplay:10.37,2013-03-28 05:30:00,
2013-03-28 01:35:00,24.6,-1.1,28.67,WNW,293,2.7,3.5,32,0.00,CLR,OVC,0.00,WeatherDisplay:10.37,2013-03-28 05:35:00,
2013-03-28 01:40:00,24.4,-1.3,28.67,NW,307,2.2,3.5,32,0.00,CLR,OVC,0.00,WeatherDisplay:10.37,2013-03-28 05:40:00,
2013-03-28 01:45:00,24.4,-1.3,28.67,West,279,2.2,3.5,32,0.00,CLR,OVC,0.00,WeatherDisplay:10.37,2013-03-28 05:45:00,
2013-03-28 01:50:00,24.3,-1.4,28.67,NW,308,0.0,2.3,32,0.00,CLR,OVC,0.00,WeatherDisplay:10.37,2013-03-28 05:50:00,
2013-03-28 01:55:00,23.7,-1.2,28.67,West,265,0.0,2.3,33,0.00,CLR,OVC,0.00,WeatherDisplay:10.37,2013-03-28 05:55:00,
2013-03-28 02:00:00,23.5,-1.4,28.67,WNW,291,0.0,3.5,33,0.00,CLR,OVC,0.00,WeatherDisplay:10.37,2013-03-28 06:00:00,
2013-03-28 02:05:00,22.6,-2.2,28.67,West,278,0.0,4.0,33,0.00,CLR,OVC,0.00,WeatherDisplay:10.37,2013-03-28 06:05:00,
2013-03-28 02:10:00,22.5,-2.4,28.67,West,272,2.7,3.5,33,0.00,CLR,OVC,0.00,WeatherDisplay:10.37,2013-03-28 06:10:00,
2013-03-28 02:15:00,21.7,-3.0,28.67,West,272,0.0,2.3,33,0.00,CLR,OVC,0.00,WeatherDisplay:10.37,2013-03-28 06:15:00,
2013-03-28 02:20:00,21.7,-3.0,28.67,West,272,0.0,0.0,33,0.00,CLR,OVC,0.00,WeatherDisplay:10.37,2013-03-28 06:20:00,
2013-03-28 02:25:00,21.7,-3.0,28.67,NW,304,0.0,2.3,33,0.00,CLR,OVC,0.00,WeatherDisplay:10.37,2013-03-28 06:25:00,
2013-03-28 02:30:00,19.8,-3.5,28.67,WNW,299,0.0,2.3,35,0.00,CLR,OVC,0.00,WeatherDisplay:10.37,2013-03-28 06:30:00,
2013-03-28 02:35:00,19.6,-3.7,28.67,NW,316,0.0,2.2,35,0.00,CLR,OVC,0.00,WeatherDisplay:10.37,2013-03-28 06:35:00,
2013-03-28 02:40:00,19.6,-3.7,28.67,WNW,284,0.0,2.7,35,0.00,CLR,OVC,0.00,WeatherDisplay:10.37,2013-03-28 06:40:00,
2013-03-28 02:45:00,19.6,-3.1,28.67,West,272,3.1,3.5,36,0.00,CLR,OVC,0.00,WeatherDisplay:10.37,2013-03-28 06:45:00,
2013-03-28 02:50:00,19.6,-3.1,28.67,WNW,297,0.0,3.5,36,0.00,CLR,OVC,0.00,WeatherDisplay:10.37,2013-03-28 06:50:00,
2013-03-28 02:55:00,19.4,-2.7,28.67,WNW,295,0.0,2.3,37,0.00,CLR,OVC,0.00,WeatherDisplay:10.37,2013-03-28 06:55:00,
2013-03-28 03:00:00,19.0,-3.0,28.67,NW,319,2.7,3.5,37,0.00,CLR,OVC,0.00,WeatherDisplay:10.37,2013-03-28 07:00:00,
2013-03-28 03:05:00,18.9,-3.2,28.67,NW,312,0.0,2.3,37,0.00,CLR,OVC,0.00,WeatherDisplay:10.37,2013-03-28 07:05:00,
2013-03-28 03:10:00,18.5,-3.5,28.67,West,273,0.0,2.3,37,0.00,CLR,OVC,0.00,WeatherDisplay:10.37,2013-03-28 07:10:00,
2013-03-28 03:15:00,18.5,-3.5,28.67,West,274,2.2,3.5,37,0.00,CLR,OVC,0.00,WeatherDisplay:10.37,2013-03-28 07:15:00,
2013-03-28 03:20:00,18.5,-2.9,28.67,WNW,291,0.0,0.0,38,0.00,CLR,OVC,0.00,WeatherDisplay:10.37,2013-03-28 07:20:00,
2013-03-28 03:25:00,18.5,-2.9,28.67,WNW,291,0.0,0.0,38,0.00,CLR,OVC,0.00,WeatherDisplay:10.37,2013-03-28 07:25:00,
2013-03-28 03:30:00,18.5,-2.9,28.67,WNW,291,0.0,0.0,38,0.00,CLR,OVC,0.00,WeatherDisplay:10.37,2013-03-28 07:30:00,
2013-03-28 03:35:00,19.2,-1.7,28.67,WNW,293,2.7,3.5,39,0.00,CLR,OVC,0.00,WeatherDisplay:10.37,2013-03-28 07:35:00,
2013-03-28 03:40:00,19.2,-1.7,28.67,West,273,2.2,3.5,39,0.00,CLR,OVC,0.00,WeatherDisplay:10.37,2013-03-28 07:40:00,
2013-03-28 03:45:00,19.0,-1.9,28.67,NW,314,0.0,3.5,39,0.00,CLR,OVC,0.00,WeatherDisplay:10.37,2013-03-28 07:45:00,
2013-03-28 03:50:00,18.7,-2.8,28.67,NW,315,0.0,0.0,38,0.00,CLR,OVC,0.00,WeatherDisplay:10.37,2013-03-28 07:50:00,
2013-03-28 03:55:00,18.1,-3.3,28.67,WNW,297,0.0,0.0,38,0.00,CLR,OVC,0.00,WeatherDisplay:10.37,2013-03-28 07:55:00,
2013-03-28 04:00:00,17.8,-3.6,28.67,West,280,3.1,3.5,38,0.00,CLR,OVC,0.00,WeatherDisplay:10.37,2013-03-28 08:00:00,
2013-03-28 04:05:00,17.8,-2.5,28.67,West,273,2.7,3.5,40,0.00,CLR,OVC,0.00,WeatherDisplay:10.37,2013-03-28 08:05:00,
2013-03-28 04:10:00,17.8,-2.5,28.67,WNW,288,2.2,2.3,40,0.00,CLR,OVC,0.00,WeatherDisplay:10.37,2013-03-28 08:10:00,
2013-03-28 04:15:00,17.8,-2.5,28.67,WNW,282,0.0,3.1,40,0.00,CLR,OVC,0.00,WeatherDisplay:10.37,2013-03-28 08:15:00,
2013-03-28 04:20:00,17.8,-2.5,28.67,West,277,2.2,3.5,40,0.00,CLR,OVC,0.00,WeatherDisplay:10.37,2013-03-28 08:20:00,
2013-03-28 04:25:00,17.4,-3.4,28.67,West,276,2.2,3.5,39,0.00,CLR,OVC,0.00,WeatherDisplay:10.37,2013-03-28 08:25:00,
2013-03-28 04:30:00,17.2,-3.0,28.67,WNW,295,0.0,3.5,40,0.00,CLR,OVC,0.00,WeatherDisplay:10.37,2013-03-28 08:30:00,
2013-03-28 04:35:00,17.6,-1.6,28.67,WNW,292,0.0,2.7,42,0.00,CLR,OVC,0.00,WeatherDisplay:10.37,2013-03-28 08:35:00,
2013-03-28 04:40:00,17.8,-1.0,28.67,WNW,283,0.0,0.0,43,0.00,CLR,OVC,0.00,WeatherDisplay:10.37,2013-03-28 08:40:00,
2013-03-28 04:45:00,17.4,-2.3,28.67,West,276,2.7,3.5,41,0.00,CLR,OVC,0.00,WeatherDisplay:10.37,2013-03-28 08:45:00,
2013-03-28 04:50:00,17.2,-2.5,28.67,West,281,2.2,3.5,41,0.00,CLR,OVC,0.00,WeatherDisplay:10.37,2013-03-28 08:50:00,
2013-03-28 04:55:00,16.7,-3.0,28.67,West,273,2.7,3.5,41,0.00,CLR,OVC,0.00,WeatherDisplay:10.37,2013-03-28 08:55:00,
2013-03-28 05:00:00,16.2,-3.5,28.67,West,274,2.7,3.5,41,0.00,CLR,OVC,0.00,WeatherDisplay:10.37,2013-03-28 09:00:00,
2013-03-28 05:06:00,16.0,-3.6,28.67,West,280,2.2,4.0,41,0.00,CLR,OVC,0.00,WeatherDisplay:10.37,2013-03-28 09:06:00,
2013-03-28 05:11:00,16.0,-3.6,28.67,West,272,2.2,3.5,41,0.00,CLR,OVC,0.00,WeatherDisplay:10.37,2013-03-28 09:11:00,
2013-03-28 05:17:00,15.8,-3.8,28.67,WNW,295,0.0,3.5,41,0.00,CLR,OVC,0.00,WeatherDisplay:10.37,2013-03-28 09:17:00,
2013-03-28 05:22:00,16.2,-2.5,28.67,NW,305,0.0,2.3,43,0.00,CLR,OVC,0.00,WeatherDisplay:10.37,2013-03-28 09:22:00,
2013-03-28 05:27:00,15.8,-2.8,28.67,WNW,303,0.0,0.0,43,0.00,CLR,OVC,0.00,WeatherDisplay:10.37,2013-03-28 09:27:00,
2013-03-28 05:32:00,15.1,-3.9,28.67,WNW,302,0.0,0.0,42,0.00,CLR,OVC,0.00,WeatherDisplay:10.37,2013-03-28 09:32:00,
2013-03-28 05:37:00,14.5,-3.9,28.67,WNW,302,0.0,0.0,43,0.00,CLR,OVC,0.00,WeatherDisplay:10.37,2013-03-28 09:37:00,
2013-03-28 05:42:00,14.2,-4.3,28.67,West,273,0.0,0.0,43,0.00,CLR,OVC,0.00,WeatherDisplay:10.37,2013-03-28 09:42:00,
2013-03-28 05:47:00,14.0,-4.4,28.67,West,275,0.0,0.0,43,0.00,CLR,OVC,0.00,WeatherDisplay:10.37,2013-03-28 09:47:00,
2013-03-28 05:52:00,13.6,-4.8,28.67,West,275,0.0,0.0,43,0.00,CLR,OVC,0.00,WeatherDisplay:10.37,2013-03-28 09:52:00,
2013-03-28 05:57:00,13.5,-4.9,28.67,West,275,0.0,0.0,43,0.00,CLR,OVC,0.00,WeatherDisplay:10.37,2013-03-28 09:57:00,
2013-03-28 06:02:00,13.3,-4.6,28.67,West,275,0.0,0.0,44,0.00,CLR,OVC,0.00,WeatherDisplay:10.37,2013-03-28 10:02:00,
2013-03-28 06:07:00,13.1,-4.8,28.67,West,275,0.0,0.0,44,0.00,CLR,OVC,0.00,WeatherDisplay:10.37,2013-03-28 10:07:00,
2013-03-28 06:12:00,12.9,-4.9,28.67,West,275,0.0,0.0,44,0.00,CLR,OVC,0.00,WeatherDisplay:10.37,2013-03-28 10:12:00,
2013-03-28 06:17:00,12.9,-4.9,28.67,West,275,0.0,0.0,44,0.00,CLR,OVC,0.00,WeatherDisplay:10.37,2013-03-28 10:17:00,
2013-03-28 06:22:00,12.7,-5.1,28.67,West,275,0.0,0.0,44,0.00,CLR,OVC,0.00,WeatherDisplay:10.37,2013-03-28 10:22:00,
2013-03-28 06:27:00,12.6,-5.3,28.67,West,275,0.0,0.0,44,0.00,CLR,OVC,0.00,WeatherDisplay:10.37,2013-03-28 10:27:00,
2013-03-28 06:32:00,12.4,-5.4,28.67,West,275,0.0,0.0,44,0.00,CLR,OVC,0.00,WeatherDisplay:10.37,2013-03-28 10:32:00,
2013-03-28 06:37:00,12.0,-5.8,28.67,West,275,0.0,0.0,44,0.00,CLR,OVC,0.00,WeatherDisplay:10.37,2013-03-28 10:37:00,
2013-03-28 06:42:00,11.8,-5.9,28.67,West,275,0.0,0.0,44,0.00,CLR,OVC,0.00,WeatherDisplay:10.37,2013-03-28 10:42:00,
2013-03-28 06:47:00,11.8,-5.9,28.67,West,275,0.0,0.0,44,0.00,CLR,OVC,0.00,WeatherDisplay:10.37,2013-03-28 10:47:00,
2013-03-28 06:52:00,11.8,-5.9,28.67,West,275,0.0,0.0,44,0.00,CLR,OVC,0.00,WeatherDisplay:10.37,2013-03-28 10:52:00,
2013-03-28 06:57:00,12.0,-5.8,28.67,West,275,0.0,2.3,44,0.00,CLR,OVC,0.00,WeatherDisplay:10.37,2013-03-28 10:57:00,
2013-03-28 07:02:00,12.0,-5.8,28.67,West,275,0.0,0.0,44,0.00,CLR,OVC,0.00,WeatherDisplay:10.37,2013-03-28 11:02:00,
2013-03-28 07:07:00,11.8,-5.9,28.67,West,275,0.0,0.0,44,0.00,CLR,OVC,0.00,WeatherDisplay:10.37,2013-03-28 11:07:00,
2013-03-28 07:12:00,11.5,-6.3,28.67,WNW,290,0.0,0.0,44,0.00,CLR,OVC,0.00,WeatherDisplay:10.37,2013-03-28 11:12:00,
2013-03-28 07:17:00,11.5,-6.3,28.67,WNW,290,0.0,0.0,44,0.00,CLR,OVC,0.00,WeatherDisplay:10.37,2013-03-28 11:17:00,
2013-03-28 07:22:00,11.5,-6.3,28.67,WNW,290,0.0,0.0,44,0.00,CLR,OVC,0.00,WeatherDisplay:10.37,2013-03-28 11:22:00,
2013-03-28 07:27:00,11.7,-6.1,28.67,WNW,290,0.0,0.0,44,0.00,CLR,OVC,0.00,WeatherDisplay:10.37,2013-03-28 11:27:00,
2013-03-28 07:32:00,12.0,-5.8,28.67,WNW,290,0.0,0.0,44,0.00,CLR,OVC,0.00,WeatherDisplay:10.37,2013-03-28 11:32:00,
2013-03-28 07:37:00,12.4,-5.4,28.67,WNW,290,0.0,2.3,44,0.00,CLR,OVC,0.00,WeatherDisplay:10.37,2013-03-28 11:37:00,
2013-03-28 07:43:00,12.4,-5.4,28.67,WNW,283,2.2,3.5,44,0.00,CLR,OVC,0.00,WeatherDisplay:10.37,2013-03-28 11:43:00,
2013-03-28 07:48:00,12.4,-5.4,28.67,West,280,2.7,3.5,44,0.00,CLR,OVC,0.00,WeatherDisplay:10.37,2013-03-28 11:48:00,
2013-03-28 07:53:00,12.2,-5.6,28.67,West,278,2.2,2.3,44,0.00,CLR,OVC,0.00,WeatherDisplay:10.37,2013-03-28 11:53:00,
2013-03-28 07:58:00,11.8,-5.9,28.67,West,278,0.0,2.3,44,0.00,CLR,OVC,0.00,WeatherDisplay:10.37,2013-03-28 11:58:00,
2013-03-28 08:03:00,11.8,-5.9,28.67,West,278,0.0,2.3,44,0.00,CLR,OVC,0.00,WeatherDisplay:10.37,2013-03-28 12:03:00,
2013-03-28 08:08:00,12.0,-5.8,28.67,West,278,0.0,2.3,44,0.00,CLR,OVC,0.00,WeatherDisplay:10.37,2013-03-28 12:08:00,
2013-03-28 08:13:00,12.4,-5.4,28.67,West,280,2.2,3.5,44,0.00,CLR,OVC,0.00,WeatherDisplay:10.37,2013-03-28 12:13:00,
2013-03-28 08:18:00,12.7,-5.1,28.67,West,273,2.2,4.6,44,0.00,CLR,OVC,0.00,WeatherDisplay:10.37,2013-03-28 12:18:00,
2013-03-28 08:23:00,13.5,-2.6,28.67,West,277,3.1,3.6,48,0.00,CLR,OVC,0.00,WeatherDisplay:10.37,2013-03-28 12:23:00,
2013-03-28 08:28:00,14.5,-1.2,28.67,West,279,3.6,3.6,49,0.00,CLR,OVC,0.00,WeatherDisplay:10.37,2013-03-28 12:28:00,
2013-03-28 08:33:00,15.3,-0.5,28.67,West,276,3.1,3.5,49,0.00,CLR,OVC,0.00,WeatherDisplay:10.37,2013-03-28 12:33:00,
2013-03-28 08:38:00,16.0,0.2,28.67,West,275,3.1,3.5,49,0.00,CLR,OVC,0.00,WeatherDisplay:10.37,2013-03-28 12:38:00,
2013-03-28 08:43:00,17.1,1.6,28.67,West,279,2.2,2.3,50,0.00,CLR,OVC,0.00,WeatherDisplay:10.37,2013-03-28 12:43:00,
2013-03-28 08:48:00,18.1,3.9,28.67,WNW,295,0.0,3.5,53,0.00,CLR,OVC,0.00,WeatherDisplay:10.37,2013-03-28 12:48:00,
2013-03-28 08:53:00,20.7,6.2,28.67,WNW,285,2.7,3.5,53,0.00,CLR,OVC,0.00,WeatherDisplay:10.37,2013-03-28 12:53:00,
2013-03-28 08:58:00,22.1,7.1,28.67,West,278,4.0,5.8,52,0.00,CLR,OVC,0.00,WeatherDisplay:10.37,2013-03-28 12:58:00,
2013-03-28 09:03:00,23.0,6.7,28.70,NW,322,3.1,5.8,49,0.00,CLR,OVC,0.00,WeatherDisplay:10.37,2013-03-28 13:03:00,
2013-03-28 09:08:00,24.1,5.3,28.70,West,276,3.1,3.5,44,0.00,CLR,OVC,0.00,WeatherDisplay:10.37,2013-03-28 13:08:00,
2013-03-28 09:13:00,25.2,5.2,28.70,WNW,292,3.1,4.6,42,0.00,CLR,OVC,0.00,WeatherDisplay:10.37,2013-03-28 13:13:00,
2013-03-28 09:18:00,26.1,5.0,28.70,NW,315,3.6,4.6,40,0.00,CLR,OVC,0.00,WeatherDisplay:10.37,2013-03-28 13:18:00,
2013-03-28 09:23:00,27.0,4.1,28.70,NW,317,5.4,5.8,37,0.00,CLR,OVC,0.00,WeatherDisplay:10.37,2013-03-28 13:23:00,
2013-03-28 09:28:00,27.3,4.4,28.70,NW,321,4.5,5.8,37,0.00,CLR,OVC,0.00,WeatherDisplay:10.37,2013-03-28 13:28:00,
2013-03-28 09:33:00,30.6,4.8,28.70,WNW,288,3.1,3.5,33,0.00,CLR,OVC,0.00,WeatherDisplay:10.37,2013-03-28 13:33:00,
2013-03-28 09:38:00,32.2,4.9,28.70,NW,319,3.6,3.6,31,0.00,CLR,OVC,0.00,WeatherDisplay:10.37,2013-03-28 13:38:00,
2013-03-28 09:43:00,33.8,5.6,28.70,West,273,4.0,8.1,30,0.00,CLR,OVC,0.00,WeatherDisplay:10.37,2013-03-28 13:43:00,
2013-03-28 09:48:00,34.7,5.6,28.70,WNW,299,4.5,5.8,29,0.00,CLR,OVC,0.00,WeatherDisplay:10.37,2013-03-28 13:48:00,
2013-03-28 09:53:00,35.1,4.4,28.70,NNW,345,4.5,8.1,27,0.00,CLR,OVC,0.00,WeatherDisplay:10.37,2013-03-28 13:53:00,
2013-03-28 09:58:00,35.4,2.1,28.70,NNW,327,5.4,5.4,24,0.00,CLR,OVC,0.00,WeatherDisplay:10.37,2013-03-28 13:58:00,
2013-03-28 10:03:00,36.1,2.8,28.70,West,281,5.8,8.1,24,0.00,CLR,OVC,0.00,WeatherDisplay:10.37,2013-03-28 14:03:00,
2013-03-28 10:08:00,37.0,3.5,28.70,WNW,292,3.6,6.9,24,0.00,CLR,OVC,0.00,WeatherDisplay:10.37,2013-03-28 14:08:00,
2013-03-28 10:13:00,37.8,4.1,28.70,West,275,3.1,5.8,24,0.00,CLR,OVC,0.00,WeatherDisplay:10.37,2013-03-28 14:13:00,
2013-03-28 10:18:00,39.0,4.3,28.70,West,274,0.0,3.5,23,0.00,CLR,OVC,0.00,WeatherDisplay:10.37,2013-03-28 14:18:00,
2013-03-28 10:23:00,41.2,4.1,28.70,West,275,0.0,0.0,21,0.00,CLR,OVC,0.00,WeatherDisplay:10.37,2013-03-28 14:23:00,
2013-03-28 10:28:00,42.6,4.3,28.70,NW,312,0.0,3.5,20,0.00,CLR,OVC,0.00,WeatherDisplay:10.37,2013-03-28 14:28:00,
2013-03-28 10:33:00,42.8,4.4,28.70,NW,318,2.7,4.6,20,0.00,CLR,OVC,0.00,WeatherDisplay:10.37,2013-03-28 14:33:00,
2013-03-28 10:38:00,43.0,4.6,28.70,WNW,297,0.0,0.0,20,0.00,CLR,OVC,0.00,WeatherDisplay:10.37,2013-03-28 14:38:00,
2013-03-28 10:43:00,44.6,5.9,28.70,NNW,339,2.2,3.5,20,0.00,CLR,OVC,0.00,WeatherDisplay:10.37,2013-03-28 14:43:00,
2013-03-28 10:48:00,44.4,5.8,28.70,WNW,283,4.9,6.9,20,0.00,CLR,OVC,0.00,WeatherDisplay:10.37,2013-03-28 14:48:00,
2013-03-28 10:53:00,44.1,5.5,28.70,West,271,3.1,5.8,20,0.00,CLR,OVC,0.00,WeatherDisplay:10.37,2013-03-28 14:53:00,
2013-03-28 10:58:00,44.6,5.9,28.70,WNW,285,5.4,6.3,20,0.00,CLR,OVC,0.00,WeatherDisplay:10.37,2013-03-28 14:58:00,
2013-03-28 11:03:00,45.5,5.6,28.70,NW,307,2.2,2.3,19,0.00,CLR,OVC,0.00,WeatherDisplay:10.37,2013-03-28 15:03:00,
2013-03-28 11:08:00,46.9,6.7,28.70,NW,313,0.0,3.1,19,0.00,CLR,OVC,0.00,WeatherDisplay:10.37,2013-03-28 15:08:00,
2013-03-28 11:13:00,47.7,7.3,28.70,NW,317,4.5,5.8,19,0.00,CLR,OVC,0.00,WeatherDisplay:10.37,2013-03-28 15:13:00,
2013-03-28 11:18:00,47.8,7.5,28.70,West,265,0.0,3.5,19,0.00,CLR,OVC,0.00,WeatherDisplay:10.37,2013-03-28 15:18:00,
2013-03-28 11:23:00,48.0,7.6,28.70,SW,230,3.1,4.0,19,0.00,CLR,OVC,0.00,WeatherDisplay:10.37,2013-03-28 15:23:00,
2013-03-28 11:28:00,48.0,7.6,28.70,WNW,300,0.0,3.5,19,0.00,CLR,OVC,0.00,WeatherDisplay:10.37,2013-03-28 15:28:00,
2013-03-28 11:33:00,47.8,7.5,28.67,NE,54,2.7,5.8,19,0.00,CLR,OVC,0.00,WeatherDisplay:10.37,2013-03-28 15:33:00,
2013-03-28 11:38:00,48.4,7.9,28.67,West,265,0.0,0.0,19,0.00,CLR,OVC,0.00,WeatherDisplay:10.37,2013-03-28 15:38:00,
2013-03-28 11:43:00,48.6,8.1,28.67,WNW,287,0.0,3.5,19,0.00,CLR,OVC,0.00,WeatherDisplay:10.37,2013-03-28 15:43:00,
2013-03-28 11:48:00,48.6,8.1,28.70,NNE,27,6.7,8.1,19,0.00,CLR,OVC,0.00,WeatherDisplay:10.37,2013-03-28 15:48:00,
2013-03-28 11:53:00,48.7,8.2,28.70,NE,39,5.4,8.1,19,0.00,CLR,OVC,0.00,WeatherDisplay:10.37,2013-03-28 15:53:00,
2013-03-28 11:58:00,49.6,9.0,28.70,North,2,4.5,5.8,19,0.00,CLR,OVC,0.00,WeatherDisplay:10.37,2013-03-28 15:58:00,
2013-03-28 12:03:00,49.8,9.1,28.67,North,350,3.6,5.8,19,0.00,CLR,OVC,0.00,WeatherDisplay:10.37,2013-03-28 16:03:00,
2013-03-28 12:08:00,50.2,9.4,28.67,North,1,0.0,3.5,19,0.00,CLR,OVC,0.00,WeatherDisplay:10.37,2013-03-28 16:08:00,
2013-03-28 12:13:00,50.2,9.4,28.67,West,270,3.6,5.8,19,0.00,CLR,OVC,0.00,WeatherDisplay:10.37,2013-03-28 16:13:00,
2013-03-28 12:18:00,50.5,9.7,28.67,North,0,4.0,5.8,19,0.00,CLR,OVC,0.00,WeatherDisplay:10.37,2013-03-28 16:18:00,
2013-03-28 12:23:00,50.9,8.8,28.67,WNW,295,2.7,3.5,18,0.00,CLR,OVC,0.00,WeatherDisplay:10.37,2013-03-28 16:23:00,
2013-03-28 12:28:00,50.4,9.6,28.67,ENE,58,0.0,3.5,19,0.00,CLR,OVC,0.00,WeatherDisplay:10.37,2013-03-28 16:28:00,
2013-03-28 12:33:00,51.3,9.1,28.67,West,268,3.6,5.8,18,0.00,CLR,OVC,0.00,WeatherDisplay:10.37,2013-03-28 16:33:00,
2013-03-28 12:38:00,50.7,9.9,28.67,WNW,291,3.1,5.8,19,0.00,CLR,OVC,0.00,WeatherDisplay:10.37,2013-03-28 16:38:00,
2013-03-28 12:43:00,50.7,9.9,28.67,NW,312,4.9,5.8,19,0.00,CLR,OVC,0.00,WeatherDisplay:10.37,2013-03-28 16:43:00,
2013-03-28 12:48:00,51.1,9.0,28.67,NNE,13,5.4,8.1,18,0.00,CLR,OVC,0.00,WeatherDisplay:10.37,2013-03-28 16:48:00,
2013-03-28 12:53:00,50.9,8.8,28.67,West,277,2.7,3.5,18,0.00,CLR,OVC,0.00,WeatherDisplay:10.37,2013-03-28 16:53:00,
2013-03-28 12:58:00,50.5,9.7,28.67,WNW,299,4.5,5.8,19,0.00,CLR,OVC,0.00,WeatherDisplay:10.37,2013-03-28 16:58:00,
2013-03-28 13:03:00,50.7,9.9,28.67,NW,310,4.9,4.9,19,0.00,CLR,OVC,0.00,WeatherDisplay:10.37,2013-03-28 17:03:00,
2013-03-28 13:08:00,51.1,9.0,28.67,NNW,334,0.0,2.3,18,0.00,CLR,OVC,0.00,WeatherDisplay:10.37,2013-03-28 17:08:00,
2013-03-28 13:13:00,52.5,10.2,28.67,West,271,2.2,3.5,18,0.00,CLR,OVC,0.00,WeatherDisplay:10.37,2013-03-28 17:13:00,
2013-03-28 13:18:00,53.4,10.9,28.67,WNW,288,2.7,3.5,18,0.00,CLR,OVC,0.00,WeatherDisplay:10.37,2013-03-28 17:18:00,
2013-03-28 13:23:00,53.6,11.0,28.67,North,353,3.6,5.8,18,0.00,CLR,OVC,0.00,WeatherDisplay:10.37,2013-03-28 17:23:00,
2013-03-28 13:28:00,53.8,11.2,28.67,NE,42,2.2,3.5,18,0.00,CLR,OVC,0.00,WeatherDisplay:10.37,2013-03-28 17:28:00,
2013-03-28 13:33:00,54.1,11.5,28.67,NW,326,4.9,8.1,18,0.00,CLR,OVC,0.00,WeatherDisplay:10.37,2013-03-28 17:33:00,
2013-03-28 13:38:00,53.8,11.2,28.67,WSW,249,4.5,5.8,18,0.00,CLR,OVC,0.00,WeatherDisplay:10.37,2013-03-28 17:38:00,
2013-03-28 13:43:00,54.1,11.5,28.67,NNE,22,0.0,3.5,18,0.00,CLR,OVC,0.00,WeatherDisplay:10.37,2013-03-28 17:43:00,
2013-03-28 13:48:00,54.7,10.6,28.67,NE,49,0.0,3.5,17,0.00,CLR,OVC,0.00,WeatherDisplay:10.37,2013-03-28 17:48:00,
2013-03-28 13:53:00,53.6,11.0,28.67,NW,308,3.1,5.8,18,0.00,CLR,OVC,0.00,WeatherDisplay:10.37,2013-03-28 17:53:00,
2013-03-28 13:58:00,52.7,10.3,28.67,WSW,255,3.6,5.8,18,0.00,CLR,OVC,0.00,WeatherDisplay:10.37,2013-03-28 17:58:00,
2013-03-28 14:03:00,52.9,10.5,28.67,West,281,2.7,3.5,18,0.00,CLR,OVC,0.00,WeatherDisplay:10.37,2013-03-28 18:03:00,
2013-03-28 14:08:00,53.6,11.0,28.67,West,272,0.0,3.5,18,0.00,CLR,OVC,0.00,WeatherDisplay:10.37,2013-03-28 18:08:00,
2013-03-28 14:13:00,54.0,11.3,28.67,SW,236,0.0,2.3,18,0.00,CLR,OVC,0.00,WeatherDisplay:10.37,2013-03-28 18:13:00,
2013-03-28 14:18:00,54.1,11.5,28.67,WNW,295,3.6,5.8,18,0.00,CLR,OVC,0.00,WeatherDisplay:10.37,2013-03-28 18:18:00,
2013-03-28 14:23:00,54.3,11.6,28.67,NW,316,2.7,4.6,18,0.00,CLR,OVC,0.00,WeatherDisplay:10.37,2013-03-28 18:23:00,
2013-03-28 14:28:00,53.8,11.2,28.67,WSW,255,4.0,4.0,18,0.00,CLR,OVC,0.00,WeatherDisplay:10.37,2013-03-28 18:28:00,
2013-03-28 14:33:00,53.2,10.8,28.67,WSW,250,3.1,8.1,18,0.00,CLR,OVC,0.00,WeatherDisplay:10.37,2013-03-28 18:33:00,
2013-03-28 14:38:00,53.8,11.2,28.67,NNW,338,0.0,3.5,18,0.00,CLR,OVC,0.00,WeatherDisplay:10.37,2013-03-28 18:38:00,
2013-03-28 14:43:00,55.4,11.2,28.67,NNW,327,3.1,5.8,17,0.00,CLR,OVC,0.00,WeatherDisplay:10.37,2013-03-28 18:43:00,
2013-03-28 14:48:00,54.7,10.6,28.67,South,186,4.5,5.8,17,0.00,CLR,OVC,0.00,WeatherDisplay:10.37,2013-03-28 18:48:00,
2013-03-28 14:53:00,54.3,11.6,28.67,NNW,333,2.2,3.5,18,0.00,CLR,OVC,0.00,WeatherDisplay:10.37,2013-03-28 18:53:00,
2013-03-28 14:58:00,51.6,9.4,28.67,East,79,3.1,5.8,18,0.00,CLR,OVC,0.00,WeatherDisplay:10.37,2013-03-28 18:58:00,
2013-03-28 15:03:00,50.9,8.8,28.67,NNW,329,3.6,5.8,18,0.00,CLR,OVC,0.00,WeatherDisplay:10.37,2013-03-28 19:03:00,
2013-03-28 15:08:00,51.8,9.6,28.67,WSW,255,3.1,5.8,18,0.00,CLR,OVC,0.00,WeatherDisplay:10.37,2013-03-28 19:08:00,
2013-03-28 15:13:00,54.1,11.5,28.67,South,191,0.0,0.0,18,0.00,CLR,OVC,0.00,WeatherDisplay:10.37,2013-03-28 19:13:00,
2013-03-28 15:18:00,55.0,10.9,28.67,West,271,3.6,5.8,17,0.00,CLR,OVC,0.00,WeatherDisplay:10.37,2013-03-28 19:18:00,
2013-03-28 15:23:00,54.5,10.5,28.67,ENE,64,3.1,3.5,17,0.00,CLR,OVC,0.00,WeatherDisplay:10.37,2013-03-28 19:23:00,
2013-03-28 15:28:00,54.3,11.6,28.67,SW,226,0.0,3.5,18,0.00,CLR,OVC,0.00,WeatherDisplay:10.37,2013-03-28 19:28:00,
2013-03-28 15:33:00,55.0,10.9,28.67,NW,321,2.2,3.5,17,0.00,CLR,OVC,0.00,WeatherDisplay:10.37,2013-03-28 19:33:00,
2013-03-28 15:38:00,54.9,10.8,28.67,West,271,2.2,3.5,17,0.00,CLR,OVC,0.00,WeatherDisplay:10.37,2013-03-28 19:38:00,
2013-03-28 15:43:00,53.8,11.2,28.67,NNW,342,2.7,4.6,18,0.00,CLR,OVC,0.00,WeatherDisplay:10.37,2013-03-28 19:43:00,
2013-03-28 15:48:00,53.8,11.2,28.64,ENE,70,2.2,4.6,18,0.00,CLR,OVC,0.00,WeatherDisplay:10.37,2013-03-28 19:48:00,
2013-03-28 15:53:00,53.1,10.6,28.64,South,176,3.6,4.0,18,0.00,CLR,OVC,0.00,WeatherDisplay:10.37,2013-03-28 19:53:00,
2013-03-28 15:58:00,50.4,9.6,28.64,SSE,160,3.6,5.8,19,0.00,CLR,OVC,0.00,WeatherDisplay:10.37,2013-03-28 19:58:00,
2013-03-28 16:03:00,50.2,9.4,28.64,East,87,3.1,5.8,19,0.00,CLR,OVC,0.00,WeatherDisplay:10.37,2013-03-28 20:03:00,
2013-03-28 16:08:00,50.9,8.8,28.64,ENE,75,0.0,5.8,18,0.00,CLR,OVC,0.00,WeatherDisplay:10.37,2013-03-28 20:08:00,
2013-03-28 16:13:00,52.2,9.9,28.64,West,266,0.0,3.5,18,0.00,CLR,OVC,0.00,WeatherDisplay:10.37,2013-03-28 20:13:00,
2013-03-28 16:18:00,51.8,9.6,28.64,ENE,75,6.3,8.1,18,0.00,CLR,OVC,0.00,WeatherDisplay:10.37,2013-03-28 20:18:00,
2013-03-28 16:23:00,50.0,9.3,28.64,NE,41,4.5,4.6,19,0.00,CLR,OVC,0.00,WeatherDisplay:10.37,2013-03-28 20:23:00,
2013-03-28 16:28:00,50.2,9.4,28.64,NNE,13,3.6,3.6,19,0.00,CLR,OVC,0.00,WeatherDisplay:10.37,2013-03-28 20:28:00,
2013-03-28 16:33:00,50.7,9.9,28.64,ENE,66,3.6,3.6,19,0.00,CLR,OVC,0.00,WeatherDisplay:10.37,2013-03-28 20:33:00,
2013-03-28 16:38:00,51.1,9.0,28.64,SSW,213,3.6,3.6,18,0.00,CLR,OVC,0.00,WeatherDisplay:10.37,2013-03-28 20:38:00,
2013-03-28 16:43:00,51.3,9.1,28.64,NNE,19,0.0,5.4,18,0.00,CLR,OVC,0.00,WeatherDisplay:10.37,2013-03-28 20:43:00,
2013-03-28 16:48:00,48.7,8.2,28.64,NE,48,2.7,3.5,19,0.00,CLR,OVC,0.00,WeatherDisplay:10.37,2013-03-28 20:48:00,
2013-03-28 16:53:00,47.3,3.3,28.64,NNE,22,2.7,5.8,16,0.00,CLR,OVC,0.00,WeatherDisplay:10.37,2013-03-28 20:53:00,
2013-03-28 16:58:00,45.3,3.0,28.64,ESE,110,4.5,5.8,17,0.00,CLR,OVC,0.00,WeatherDisplay:10.37,2013-03-28 20:58:00,
2013-03-28 17:03:00,44.8,2.5,28.64,East,88,4.9,5.8,17,0.00,CLR,OVC,0.00,WeatherDisplay:10.37,2013-03-28 21:03:00,
2013-03-28 17:08:00,44.6,2.4,28.64,NE,54,3.1,5.8,17,0.00,CLR,OVC,0.00,WeatherDisplay:10.37,2013-03-28 21:08:00,
2013-03-28 17:13:00,45.0,2.7,28.64,NE,42,3.6,5.8,17,0.00,CLR,OVC,0.00,WeatherDisplay:10.37,2013-03-28 21:13:00,
2013-03-28 17:18:00,45.0,2.7,28.64,NE,40,3.6,5.8,17,0.00,CLR,OVC,0.00,WeatherDisplay:10.37,2013-03-28 21:18:00,
2013-03-28 17:23:00,45.3,3.0,28.64,NE,46,2.7,6.3,17,0.00,CLR,OVC,0.00,WeatherDisplay:10.37,2013-03-28 21:23:00,
2013-03-28 17:28:00,45.5,3.1,28.64,East,83,4.9,10.4,17,0.00,CLR,OVC,0.00,WeatherDisplay:10.37,2013-03-28 21:28:00,
2013-03-28 17:33:00,45.1,2.8,28.64,NW,320,2.7,5.4,17,0.00,CLR,OVC,0.00,WeatherDisplay:10.37,2013-03-28 21:33:00,
2013-03-28 17:38:00,44.4,2.2,28.64,NE,41,4.9,5.8,17,0.00,CLR,OVC,0.00,WeatherDisplay:10.37,2013-03-28 21:38:00,
2013-03-28 17:43:00,43.9,1.8,28.64,West,261,3.6,4.6,17,0.00,CLR,OVC,0.00,WeatherDisplay:10.37,2013-03-28 21:43:00,
2013-03-28 17:48:00,43.2,2.4,28.64,ENE,73,4.0,8.1,18,0.00,CLR,OVC,0.00,WeatherDisplay:10.37,2013-03-28 21:48:00,
2013-03-28 17:53:00,42.3,1.7,28.64,North,353,4.0,4.6,18,0.00,CLR,OVC,0.00,WeatherDisplay:10.37,2013-03-28 21:53:00,
2013-03-28 17:58:00,41.7,1.2,28.64,ENE,64,3.6,5.8,18,0.00,CLR,OVC,0.00,WeatherDisplay:10.37,2013-03-28 21:58:00,
2013-03-28 18:03:00,41.4,0.9,28.64,NE,47,3.6,5.8,18,0.00,CLR,OVC,0.00,WeatherDisplay:10.37,2013-03-28 22:03:00,
2013-03-28 18:08:00,40.8,0.5,28.64,ENE,74,3.6,5.8,18,0.00,CLR,OVC,0.00,WeatherDisplay:10.37,2013-03-28 22:08:00,
2013-03-28 18:13:00,40.8,0.5,28.64,North,357,5.4,8.1,18,0.00,CLR,OVC,0.00,WeatherDisplay:10.37,2013-03-28 22:13:00,
2013-03-28 18:18:00,41.0,0.6,28.64,North,357,2.7,3.5,18,0.00,CLR,OVC,0.00,WeatherDisplay:10.37,2013-03-28 22:18:00,
2013-03-28 18:23:00,40.6,0.4,28.64,ENE,76,3.6,5.8,18,0.00,CLR,OVC,0.00,WeatherDisplay:10.37,2013-03-28 22:23:00,
2013-03-28 18:28:00,40.1,-0.1,28.64,North,357,3.1,3.5,18,0.00,CLR,OVC,0.00,WeatherDisplay:10.37,2013-03-28 22:28:00,
2013-03-28 18:33:00,39.6,-0.5,28.67,ENE,72,0.0,3.6,18,0.00,CLR,OVC,0.00,WeatherDisplay:10.37,2013-03-28 22:33:00,
2013-03-28 18:38:00,39.4,-0.7,28.67,NNE,33,0.0,2.3,18,0.00,CLR,OVC,0.00,WeatherDisplay:10.37,2013-03-28 22:38:00,
2013-03-28 18:43:00,39.2,-0.8,28.67,ENE,74,2.7,3.5,18,0.00,CLR,OVC,0.00,WeatherDisplay:10.37,2013-03-28 22:43:00,
2013-03-28 18:48:00,39.0,-1.0,28.67,ENE,71,4.9,5.8,18,0.00,CLR,OVC,0.00,WeatherDisplay:10.37,2013-03-28 22:48:00,
2013-03-28 18:53:00,38.7,-1.3,28.67,NE,37,2.7,4.0,18,0.00,CLR,OVC,0.00,WeatherDisplay:10.37,2013-03-28 22:53:00,
2013-03-28 19:25:00,36.3,-2.1,28.67,East,79,2.7,4.6,19,0.00,CLR,OVC,0.00,WeatherDisplay:10.37,2013-03-28 23:25:00,
2013-03-28 19:30:00,36.0,-2.4,28.67,ENE,62,3.1,3.5,19,0.00,CLR,OVC,0.00,WeatherDisplay:10.37,2013-03-28 23:30:00,
2013-03-28 19:35:00,35.8,-2.5,28.67,NNE,22,0.0,5.8,19,0.00,CLR,OVC,0.00,WeatherDisplay:10.37,2013-03-28 23:35:00,
2013-03-28 19:40:00,35.6,-2.7,28.67,North,11,0.0,3.5,19,0.00,CLR,OVC,0.00,WeatherDisplay:10.37,2013-03-28 23:40:00,
2013-03-28 19:45:00,35.1,-3.1,28.67,ENE,68,2.7,4.6,19,0.00,CLR,OVC,0.00,WeatherDisplay:10.37,2013-03-28 23:45:00,
2013-03-28 19:50:00,34.5,-2.5,28.67,ESE,111,2.7,5.4,20,0.00,CLR,OVC,0.00,WeatherDisplay:10.37,2013-03-28 23:50:00,
2013-03-28 19:55:00,34.3,-2.7,28.67,NE,41,2.7,3.5,20,0.00,CLR,OVC,0.00,WeatherDisplay:10.37,2013-03-28 23:55:00,
2013-03-28 20:00:00,33.6,-3.3,28.67,NNE,26,2.7,3.5,20,0.00,CLR,OVC,0.00,WeatherDisplay:10.37,2013-03-29 00:00:00,
2013-03-28 20:05:00,33.6,-3.3,28.67,NNW,348,0.0,2.3,20,0.00,CLR,OVC,0.00,WeatherDisplay:10.37,2013-03-29 00:05:00,
2013-03-28 20:10:00,33.6,-3.3,28.67,NNE,24,0.0,3.5,20,0.00,CLR,OVC,0.00,WeatherDisplay:10.37,2013-03-29 00:10:00,
2013-03-28 20:15:00,33.6,-3.3,28.67,North,2,2.7,3.5,20,0.00,CLR,OVC,0.00,WeatherDisplay:10.37,2013-03-29 00:15:00,
2013-03-28 20:20:00,33.6,-3.3,28.67,North,8,0.0,0.0,20,0.00,CLR,OVC,0.00,WeatherDisplay:10.37,2013-03-29 00:20:00,
2013-03-28 20:25:00,33.6,-3.3,28.67,NE,46,0.0,2.3,20,0.00,CLR,OVC,0.00,WeatherDisplay:10.37,2013-03-29 00:25:00,
2013-03-28 20:30:00,33.6,-3.3,28.67,NNE,25,0.0,2.3,20,0.00,CLR,OVC,0.00,WeatherDisplay:10.37,2013-03-29 00:30:00,
2013-03-28 20:35:00,33.6,-3.3,28.67,North,4,0.0,0.0,20,0.00,CLR,OVC,0.00,WeatherDisplay:10.37,2013-03-29 00:35:00,
2013-03-28 20:40:00,30.2,-3.2,28.67,North,4,0.0,0.0,23,0.00,CLR,OVC,0.00,WeatherDisplay:10.37,2013-03-29 00:40:00,
2013-03-28 20:45:00,30.2,-3.2,28.67,North,4,0.0,0.0,23,0.00,CLR,OVC,0.00,WeatherDisplay:10.37,2013-03-29 00:45:00,
2013-03-28 20:50:00,30.2,-3.2,28.67,North,4,0.0,0.0,23,0.00,CLR,OVC,0.00,WeatherDisplay:10.37,2013-03-29 00:50:00,
2013-03-28 20:55:00,30.2,-3.2,28.67,North,4,0.0,0.0,23,0.00,CLR,OVC,0.00,WeatherDisplay:10.37,2013-03-29 00:55:00,
2013-03-28 21:00:00,30.2,-3.2,28.67,North,4,0.0,0.0,23,0.00,CLR,OVC,0.00,WeatherDisplay:10.37,2013-03-29 01:00:00,
2013-03-28 21:05:00,30.2,-3.2,28.67,North,4,0.0,0.0,23,0.00,CLR,OVC,0.00,WeatherDisplay:10.37,2013-03-29 01:05:00,
2013-03-28 21:10:00,30.2,-3.2,28.67,North,4,0.0,0.0,23,0.00,CLR,OVC,0.00,WeatherDisplay:10.37,2013-03-29 01:10:00,
2013-03-28 21:15:00,30.2,-3.2,28.67,North,4,0.0,0.0,23,0.00,CLR,OVC,0.00,WeatherDisplay:10.37,2013-03-29 01:15:00,
2013-03-28 21:20:00,30.2,-3.2,28.67,North,4,0.0,0.0,23,0.00,CLR,OVC,0.00,WeatherDisplay:10.37,2013-03-29 01:20:00,
2013-03-28 21:25:00,30.2,-3.2,28.67,North,4,0.0,0.0,23,0.00,CLR,OVC,0.00,WeatherDisplay:10.37,2013-03-29 01:25:00,
2013-03-28 21:30:00,30.2,-3.2,28.67,North,4,0.0,0.0,23,0.00,CLR,OVC,0.00,WeatherDisplay:10.37,2013-03-29 01:30:00,
2013-03-28 21:35:00,24.6,-1.1,28.67,North,4,0.0,0.0,32,0.00,CLR,OVC,0.00,WeatherDisplay:10.37,2013-03-29 01:35:00,
2013-03-28 21:40:00,24.6,-1.1,28.67,North,4,0.0,0.0,32,0.00,CLR,OVC,0.00,WeatherDisplay:10.37,2013-03-29 01:40:00,
2013-03-28 21:45:00,24.4,-1.3,28.67,North,4,0.0,0.0,32,0.00,CLR,OVC,0.00,WeatherDisplay:10.37,2013-03-29 01:45:00,
2013-03-28 21:50:00,24.4,-1.3,28.67,North,4,0.0,0.0,32,0.00,CLR,OVC,0.00,WeatherDisplay:10.37,2013-03-29 01:50:00,
2013-03-28 21:55:00,24.4,-1.3,28.67,North,4,0.0,0.0,32,0.00,CLR,OVC,0.00,WeatherDisplay:10.37,2013-03-29 01:55:00,
2013-03-28 22:00:00,23.5,-2.1,28.67,North,4,0.0,0.0,32,0.00,CLR,OVC,0.00,WeatherDisplay:10.37,2013-03-29 02:00:00,
2013-03-28 22:05:00,22.8,-2.7,28.67,North,4,0.0,0.0,32,0.00,CLR,OVC,0.00,WeatherDisplay:10.37,2013-03-29 02:05:00,
2013-03-28 22:10:00,22.6,-2.8,28.67,North,4,0.0,0.0,32,0.00,CLR,OVC,0.00,WeatherDisplay:10.37,2013-03-29 02:10:00,
2013-03-28 22:15:00,22.3,-3.2,28.67,North,4,0.0,0.0,32,0.00,CLR,OVC,0.00,WeatherDisplay:10.37,2013-03-29 02:15:00,
2013-03-28 22:20:00,22.3,-2.5,28.67,North,4,0.0,0.0,33,0.00,CLR,OVC,0.00,WeatherDisplay:10.37,2013-03-29 02:20:00,
2013-03-28 22:25:00,22.3,-2.5,28.67,North,4,0.0,0.0,33,0.00,CLR,OVC,0.00,WeatherDisplay:10.37,2013-03-29 02:25:00,
2013-03-28 22:30:00,22.3,-2.5,28.67,North,4,0.0,0.0,33,0.00,CLR,OVC,0.00,WeatherDisplay:10.37,2013-03-29 02:30:00,
2013-03-28 22:35:00,22.8,-0.2,28.70,North,4,0.0,0.0,36,0.00,CLR,OVC,0.00,WeatherDisplay:10.37,2013-03-29 02:35:00,
2013-03-28 22:40:00,23.0,0.0,28.70,North,4,0.0,0.0,36,0.00,CLR,OVC,0.00,WeatherDisplay:10.37,2013-03-29 02:40:00,
2013-03-28 22:45:00,23.0,0.0,28.70,North,4,0.0,0.0,36,0.00,CLR,OVC,0.00,WeatherDisplay:10.37,2013-03-29 02:45:00,
2013-03-28 22:50:00,22.8,-0.8,28.70,North,4,0.0,0.0,35,0.00,CLR,OVC,0.00,WeatherDisplay:10.37,2013-03-29 02:50:00,
2013-03-28 22:55:00,22.5,-1.1,28.70,North,4,0.0,0.0,35,0.00,CLR,OVC,0.00,WeatherDisplay:10.37,2013-03-29 02:55:00,
2013-03-28 23:00:00,21.7,-1.8,28.70,North,4,0.0,0.0,35,0.00,CLR,OVC,0.00,WeatherDisplay:10.37,2013-03-29 03:00:00,
2013-03-28 23:05:00,21.0,-3.0,28.67,North,4,0.0,0.0,34,0.00,CLR,OVC,0.00,WeatherDisplay:10.37,2013-03-29 03:05:00,
2013-03-28 23:10:00,21.0,-3.0,28.67,North,4,0.0,0.0,34,0.00,CLR,OVC,0.00,WeatherDisplay:10.37,2013-03-29 03:10:00,
2013-03-28 23:15:00,20.5,-3.5,28.67,North,4,0.0,0.0,34,0.00,CLR,OVC,0.00,WeatherDisplay:10.37,2013-03-29 03:15:00,
2013-03-28 23:20:00,20.1,-3.2,28.67,North,4,0.0,0.0,35,0.00,CLR,OVC,0.00,WeatherDisplay:10.37,2013-03-29 03:20:00,
2013-03-28 23:25:00,19.9,-3.4,28.67,North,4,0.0,0.0,35,0.00,CLR,OVC,0.00,WeatherDisplay:10.37,2013-03-29 03:25:00,
2013-03-28 23:30:00,19.9,-3.4,28.67,North,4,0.0,0.0,35,0.00,CLR,OVC,0.00,WeatherDisplay:10.37,2013-03-29 03:30:00,
2013-03-28 23:35:00,19.9,-3.4,28.67,North,4,0.0,0.0,35,0.00,CLR,OVC,0.00,WeatherDisplay:10.37,2013-03-29 03:35:00,
2013-03-28 23:40:00,19.9,-3.4,28.67,North,4,0.0,0.0,35,0.00,CLR,OVC,0.00,WeatherDisplay:10.37,2013-03-29 03:40:00,
2013-03-28 23:45:00,19.9,-3.4,28.67,North,4,0.0,0.0,35,0.00,CLR,OVC,0.00,WeatherDisplay:10.37,2013-03-29 03:45:00,
2013-03-28 23:50:00,19.2,2.7,28.67,North,4,0.0,0.0,48,0.00,CLR,OVC,0.00,WeatherDisplay:10.37,2013-03-29 03:50:00,
2013-03-28 23:55:00,19.2,2.3,28.67,North,4,0.0,0.0,47,0.00,CLR,OVC,0.00,WeatherDisplay:10.37,2013-03-29 03:55:00,